Time;durP1;ratioP1;P1;durP2;ratioP2;P2;SDS_P1;SDS_P2;PMS_P1;PMS_P2;Temp;Humidity;BMP_temperature;BMP_pressure;BME280_temperature;BME280_humidity;BME280_pressure;Samples;Min_cycle;Max_cycle;Signal;HPM_P1;HPM_P2
2021/07/07 00:00:29;;;;;;;11.35;3.17;;;;;;;19.07;65.18;100700.50;5041293;28;20045;-65
2021/07/07 00:02:56;;;;;;;4.68;2.10;;;;;;;18.99;65.51;100696.53;5045661;28;20079;-66
2021/07/07 00:05:23;;;;;;;6.43;2.28;;;;;;;19.03;65.67;100702.34;5047051;28;20083;-71
2021/07/07 00:07:50;;;;;;;13.52;2.47;;;;;;;19.02;65.73;100700.69;5039405;28;20081;-70
2021/07/07 00:10:18;;;;;;;8.20;2.75;;;;;;;18.93;65.96;100681.72;5043617;28;20052;-69
2021/07/07 00:12:47;;;;;;;6.00;2.25;;;;;;;19.03;65.76;100691.84;5038154;28;20124;-71
2021/07/07 00:15:18;;;;;;;8.52;2.05;;;;;;;18.91;65.88;100683.22;5041745;28;20045;-70
2021/07/07 00:17:46;;;;;;;8.15;2.42;;;;;;;18.98;65.81;100694.88;5042970;28;20079;-70
2021/07/07 00:20:15;;;;;;;8.13;2.55;;;;;;;18.96;66.15;100691.53;5044625;28;20052;-68
2021/07/07 00:22:42;;;;;;;7.18;2.17;;;;;;;18.86;66.24;100678.56;5038545;28;20127;-67
2021/07/07 00:25:09;;;;;;;7.88;2.15;;;;;;;18.96;65.93;100685.88;5047812;28;20120;-67
2021/07/07 00:27:36;;;;;;;8.57;2.17;;;;;;;18.89;66.10;100694.03;5048548;28;20120;-67
2021/07/07 00:30:06;;;;;;;9.23;2.67;;;;;;;18.94;66.25;100693.88;5044070;28;20132;-67
2021/07/07 00:32:34;;;;;;;4.85;2.28;;;;;;;18.91;66.38;100688.88;5048518;28;20124;-69
2021/07/07 00:35:00;;;;;;;10.27;3.13;;;;;;;18.90;66.38;100690.03;5042569;28;20124;-70
2021/07/07 00:37:27;;;;;;;10.85;2.67;;;;;;;18.79;66.41;100681.06;5037984;28;20087;-69
2021/07/07 00:39:54;;;;;;;10.43;2.58;;;;;;;18.83;66.43;100695.38;5049524;28;20128;-68
2021/07/07 00:42:21;;;;;;;4.93;2.10;;;;;;;18.76;66.52;100675.22;5044229;28;20543;-68
2021/07/07 00:44:47;;;;;;;6.47;2.60;;;;;;;18.77;66.37;100683.41;5043838;28;20083;-68
2021/07/07 00:47:14;;;;;;;6.22;2.85;;;;;;;18.65;66.60;100661.38;5046506;28;20128;-69
2021/07/07 00:49:41;;;;;;;8.80;2.55;;;;;;;18.80;66.44;100681.88;5040689;28;20056;-69
2021/07/07 00:52:10;;;;;;;5.78;2.22;;;;;;;18.78;66.83;100672.91;5037399;28;20573;-67
2021/07/07 00:54:38;;;;;;;7.60;2.40;;;;;;;18.81;66.93;100683.56;5041132;28;20073;-67
2021/07/07 00:57:05;;;;;;;7.75;3.13;;;;;;;18.80;67.10;100682.69;5038516;28;20125;-67
2021/07/07 00:59:32;;;;;;;8.48;2.50;;;;;;;18.74;67.27;100674.75;5052331;28;20083;-67
2021/07/07 01:02:02;;;;;;;12.43;2.88;;;;;;;18.79;66.86;100674.56;5039957;28;20133;-65
2021/07/07 01:04:30;;;;;;;11.40;2.22;;;;;;;18.81;66.94;100675.91;5033029;28;20128;-67
2021/07/07 01:06:57;;;;;;;6.13;2.13;;;;;;;18.81;67.33;100680.75;5034061;28;21385;-67
2021/07/07 01:09:24;;;;;;;15.15;3.22;;;;;;;18.80;67.07;100684.72;5032799;28;20050;-65
2021/07/07 01:11:51;;;;;;;8.82;2.38;;;;;;;18.67;67.43;100666.72;5031722;28;20045;-64
2021/07/07 01:14:17;;;;;;;7.78;2.17;;;;;;;18.79;67.63;100683.06;5038674;28;20128;-68
2021/07/07 01:16:45;;;;;;;12.23;3.05;;;;;;;18.78;67.26;100685.06;5038427;28;20140;-63
2021/07/07 01:19:13;;;;;;;7.82;2.60;;;;;;;18.82;67.46;100679.56;5034119;28;20441;-68
2021/07/07 01:22:06;;;;;;;8.60;2.47;;;;;;;18.78;67.30;100673.75;5047517;28;20045;-65
2021/07/07 01:24:33;;;;;;;8.32;2.80;;;;;;;18.89;67.63;100689.19;5034086;28;20041;-63
2021/07/07 01:26:59;;;;;;;8.30;3.05;;;;;;;18.86;67.56;100672.88;5035276;28;20045;-69
2021/07/07 01:29:26;;;;;;;12.45;2.60;;;;;;;18.84;67.63;100671.59;5046533;28;20056;-69
2021/07/07 01:31:53;;;;;;;10.65;3.05;;;;;;;18.92;67.57;100684.88;5034459;28;20045;-67
2021/07/07 01:34:20;;;;;;;12.57;2.55;;;;;;;18.90;68.00;100682.38;5031912;28;20054;-67
2021/07/07 01:36:47;;;;;;;7.03;2.17;;;;;;;18.75;67.46;100654.59;5014818;28;20063;-67
2021/07/07 01:39:14;;;;;;;12.80;2.80;;;;;;;18.92;67.72;100673.56;5048569;28;20488;-62
2021/07/07 01:41:41;;;;;;;11.23;2.65;;;;;;;18.91;67.82;100677.56;5047054;28;20132;-65
2021/07/07 01:44:07;;;;;;;6.35;2.40;;;;;;;18.84;67.81;100654.59;5045213;28;20041;-63
2021/07/07 01:46:34;;;;;;;10.23;2.70;;;;;;;18.91;67.73;100671.91;5047823;28;20040;-68
2021/07/07 01:49:02;;;;;;;14.98;3.45;;;;;;;18.89;68.10;100657.25;5032073;28;20042;-70
2021/07/07 01:51:28;;;;;;;10.73;3.42;;;;;;;18.93;68.14;100678.03;5040218;28;20176;-70
2021/07/07 01:53:55;;;;;;;12.77;2.80;;;;;;;18.90;67.89;100671.06;5039923;28;20052;-69
2021/07/07 01:56:22;;;;;;;5.55;2.83;;;;;;;18.83;68.12;100664.25;5045339;28;20077;-71
2021/07/07 01:58:49;;;;;;;8.43;2.92;;;;;;;18.87;68.30;100665.22;5044320;28;20051;-65
2021/07/07 02:01:16;;;;;;;8.02;3.45;;;;;;;18.83;68.03;100659.41;5044230;28;20137;-65
2021/07/07 02:03:42;;;;;;;7.03;2.45;;;;;;;18.84;68.42;100663.09;5033939;28;20551;-67
2021/07/07 02:06:09;;;;;;;11.02;3.20;;;;;;;18.91;68.49;100671.91;5032293;28;20051;-67
2021/07/07 02:08:36;;;;;;;10.00;3.47;;;;;;;18.91;68.30;100674.75;5045049;28;20455;-68
2021/07/07 02:11:03;;;;;;;8.13;3.60;;;;;;;18.89;68.27;100668.56;5032163;28;20045;-65
2021/07/07 02:13:30;;;;;;;10.70;3.88;;;;;;;18.90;68.27;100681.53;5031861;28;20056;-66
2021/07/07 02:15:57;;;;;;;9.35;3.28;;;;;;;18.81;68.15;100658.09;5034617;28;20465;-65
2021/07/07 02:18:24;;;;;;;11.10;3.50;;;;;;;18.91;68.18;100666.25;5033384;28;20046;-69
2021/07/07 02:20:51;;;;;;;8.90;3.38;;;;;;;18.97;68.24;100664.88;5032489;28;20128;-69
2021/07/07 02:23:18;;;;;;;6.22;2.95;;;;;;;18.94;68.08;100672.06;5038672;28;20060;-73
2021/07/07 02:25:45;;;;;;;12.40;3.28;;;;;;;18.93;68.22;100666.72;5045953;28;20040;-70
2021/07/07 02:28:14;;;;;;;8.65;3.88;;;;;;;18.89;68.23;100648.75;5043943;28;20507;-71
2021/07/07 02:30:42;;;;;;;10.98;3.40;;;;;;;18.88;67.89;100639.44;5040894;28;20512;-70
2021/07/07 02:33:10;;;;;;;15.60;3.90;;;;;;;18.87;67.91;100654.78;5034045;28;20073;-72
2021/07/07 02:35:40;;;;;;;11.27;3.38;;;;;;;18.81;68.24;100650.44;5039345;28;20055;-72
2021/07/07 02:38:11;;;;;;;7.97;3.92;;;;;;;18.76;67.94;100649.75;5045150;28;20059;-71
2021/07/07 02:40:39;;;;;;;14.38;3.58;;;;;;;18.72;68.17;100646.78;5043402;28;20049;-69
2021/07/07 02:43:06;;;;;;;10.07;3.65;;;;;;;18.70;68.29;100644.25;5046875;28;20131;-70
2021/07/07 02:45:35;;;;;;;9.00;3.42;;;;;;;18.68;67.96;100651.41;5034465;28;20046;-75
2021/07/07 02:48:04;;;;;;;12.00;5.70;;;;;;;18.50;67.94;100633.63;5035464;28;20041;-75
2021/07/07 02:50:32;;;;;;;9.52;3.92;;;;;;;18.58;68.21;100655.41;5044219;28;20049;-75
2021/07/07 02:52:59;;;;;;;9.60;4.03;;;;;;;18.56;68.01;100652.06;5038405;28;20037;-74
2021/07/07 02:55:26;;;;;;;11.40;3.80;;;;;;;18.49;68.18;100643.22;5050930;28;20139;-76
2021/07/07 02:58:00;;;;;;;9.35;3.67;;;;;;;18.43;68.33;100644.59;5054180;28;20045;-75
2021/07/07 03:00:43;;;;;;;11.77;4.15;;;;;;;18.54;68.65;100650.75;5046504;28;20454;-76
2021/07/07 03:03:19;;;;;;;10.75;3.50;;;;;;;18.51;68.69;100648.56;5050362;28;20400;-77
2021/07/07 03:05:51;;;;;;;9.98;4.00;;;;;;;18.47;68.46;100648.41;5045293;28;20108;-81
2021/07/07 03:08:19;;;;;;;17.25;4.10;;;;;;;18.50;68.47;100649.75;5055728;28;20102;-78
2021/07/07 03:10:48;;;;;;;11.20;3.53;;;;;;;18.38;68.44;100627.78;5039048;28;20051;-74
2021/07/07 03:13:17;;;;;;;9.60;4.13;;;;;;;18.48;68.75;100647.25;5047047;28;20068;-74
2021/07/07 03:15:45;;;;;;;11.93;3.42;;;;;;;18.46;68.70;100649.56;5035247;28;20045;-71
2021/07/07 03:18:13;;;;;;;11.95;3.85;;;;;;;18.29;68.72;100638.22;5039141;28;20140;-70
2021/07/07 03:20:43;;;;;;;10.57;3.80;;;;;;;18.34;68.68;100635.25;5052901;28;20064;-71
2021/07/07 03:23:12;;;;;;;21.80;4.57;;;;;;;18.41;68.98;100652.56;5049668;28;20045;-71
2021/07/07 03:25:39;;;;;;;8.95;3.58;;;;;;;18.19;69.00;100626.09;5050164;28;20128;-71
2021/07/07 03:28:06;;;;;;;9.90;4.60;;;;;;;18.38;69.14;100661.69;5043278;28;20048;-72
2021/07/07 03:30:34;;;;;;;11.07;4.03;;;;;;;18.37;69.20;100651.56;5049241;28;20081;-70
2021/07/07 03:33:02;;;;;;;13.18;4.07;;;;;;;18.29;68.91;100643.88;5041206;28;20443;-70
2021/07/07 03:35:29;;;;;;;16.08;3.75;;;;;;;17.96;69.14;100604.78;5042324;28;20124;-70
2021/07/07 03:37:56;;;;;;;10.68;4.35;;;;;;;18.30;69.11;100652.06;5043475;28;20053;-69
2021/07/07 03:40:25;;;;;;;11.15;3.50;;;;;;;18.26;68.66;100644.56;5054304;28;20530;-63
2021/07/07 03:42:51;;;;;;;9.93;4.00;;;;;;;18.29;68.70;100656.03;5053115;28;20127;-67
2021/07/07 03:45:19;;;;;;;10.88;3.47;;;;;;;18.28;68.72;100653.53;5051713;28;20143;-64
2021/07/07 03:47:46;;;;;;;9.45;3.83;;;;;;;18.18;68.65;100649.84;5047147;28;20155;-66
2021/07/07 03:50:14;;;;;;;11.93;4.40;;;;;;;18.24;68.88;100662.66;5038573;28;20524;-66
2021/07/07 03:52:41;;;;;;;11.90;4.40;;;;;;;18.19;69.19;100657.19;5049134;28;20049;-67
2021/07/07 03:55:16;;;;;;;12.27;4.20;;;;;;;18.17;69.27;100651.03;5047654;28;20056;-68
2021/07/07 03:57:43;;;;;;;14.23;3.97;;;;;;;18.21;69.25;100654.03;5047727;28;20063;-67
2021/07/07 04:00:15;;;;;;;13.75;4.75;;;;;;;18.24;69.55;100659.84;5057011;28;20040;-67
2021/07/07 04:02:42;;;;;;;9.30;4.05;;;;;;;18.19;69.43;100650.72;5033688;28;20486;-66
2021/07/07 04:05:11;;;;;;;10.77;5.53;;;;;;;18.35;69.76;100663.19;5036765;28;20107;-66
2021/07/07 04:07:38;;;;;;;13.27;4.35;;;;;;;18.36;69.85;100664.88;5056625;28;20140;-67
2021/07/07 04:10:07;;;;;;;16.48;4.15;;;;;;;18.42;69.44;100666.34;5033536;28;20052;-67
2021/07/07 04:12:37;;;;;;;13.25;3.63;;;;;;;18.42;69.57;100665.53;5046886;28;20143;-68
2021/07/07 04:15:06;;;;;;;13.00;4.10;;;;;;;18.36;69.35;100650.72;5045199;28;20048;-66
2021/07/07 04:17:34;;;;;;;9.65;3.35;;;;;;;18.39;69.66;100669.00;5050029;28;20045;-63
2021/07/07 04:20:02;;;;;;;12.43;3.42;;;;;;;18.45;69.41;100681.81;5038106;28;20057;-66
2021/07/07 04:22:29;;;;;;;13.55;4.45;;;;;;;18.42;69.46;100685.31;5042043;28;20045;-62
2021/07/07 04:24:56;;;;;;;13.75;4.10;;;;;;;18.37;69.08;100686.31;5046971;28;20127;-62
2021/07/07 04:27:23;;;;;;;11.15;3.72;;;;;;;18.32;69.15;100694.94;5043639;28;20140;-63
2021/07/07 04:29:50;;;;;;;9.45;3.38;;;;;;;18.14;69.15;100676.28;5051648;28;20052;-63
2021/07/07 04:32:16;;;;;;;14.60;4.22;;;;;;;18.24;69.04;100693.75;5038626;28;20045;-65
2021/07/07 04:34:44;;;;;;;11.10;3.72;;;;;;;18.17;68.87;100687.75;5039002;28;20049;-65
2021/07/07 04:37:13;;;;;;;13.93;4.32;;;;;;;18.12;69.20;100693.59;5044649;28;20501;-64
2021/07/07 04:39:40;;;;;;;10.50;3.35;;;;;;;18.14;69.42;100687.59;5049758;28;20171;-66
2021/07/07 04:42:07;;;;;;;12.10;3.95;;;;;;;17.89;68.97;100670.22;5041890;28;20072;-66
2021/07/07 04:44:34;;;;;;;10.13;3.38;;;;;;;17.97;69.03;100699.66;5036077;28;20445;-66
2021/07/07 04:47:01;;;;;;;15.30;3.55;;;;;;;17.97;68.98;100708.97;5035949;28;20128;-66
2021/07/07 04:49:28;;;;;;;11.23;3.78;;;;;;;17.95;69.39;100704.84;5034862;28;20072;-67
2021/07/07 04:51:55;;;;;;;10.63;2.70;;;;;;;17.97;69.19;100722.28;5040084;28;20045;-69
2021/07/07 04:54:22;;;;;;;12.23;4.20;;;;;;;17.92;69.19;100719.59;5034968;28;20088;-75
2021/07/07 04:56:48;;;;;;;12.43;3.45;;;;;;;17.90;69.30;100717.09;5036886;28;20056;-76
2021/07/07 04:59:15;;;;;;;8.65;2.70;;;;;;;17.84;69.07;100711.91;5037340;28;20045;-76
2021/07/07 05:01:42;;;;;;;12.52;3.58;;;;;;;17.77;68.97;100716.03;5037857;28;20149;-64
2021/07/07 05:04:09;;;;;;;9.40;3.65;;;;;;;17.77;68.71;100718.84;5032681;28;20073;-65
2021/07/07 05:06:36;;;;;;;12.30;3.67;;;;;;;17.78;68.82;100725.38;5030275;28;20041;-63
2021/07/07 05:09:03;;;;;;;18.02;3.60;;;;;;;17.71;69.30;100725.78;5038391;28;20691;-66
2021/07/07 05:11:30;;;;;;;8.50;2.35;;;;;;;17.66;68.91;100720.28;5042225;28;20049;-67
2021/07/07 05:13:57;;;;;;;10.38;3.47;;;;;;;17.69;69.38;100728.09;5057157;28;20428;-65
2021/07/07 05:16:24;;;;;;;10.90;3.20;;;;;;;17.68;69.29;100731.25;5035040;28;20045;-71
2021/07/07 05:18:51;;;;;;;12.05;4.68;;;;;;;17.55;69.08;100716.06;5046937;28;20041;-67
2021/07/07 05:21:18;;;;;;;15.75;4.28;;;;;;;17.66;69.06;100740.03;5032500;28;20144;-69
2021/07/07 05:23:45;;;;;;;15.25;4.30;;;;;;;17.64;69.48;100747.16;5040784;28;20077;-68
2021/07/07 05:26:12;;;;;;;9.15;3.38;;;;;;;17.65;69.43;100740.38;5022886;28;20048;-71
2021/07/07 05:28:39;;;;;;;16.25;3.78;;;;;;;17.69;69.19;100747.88;5032052;28;20050;-69
2021/07/07 05:31:07;;;;;;;16.63;4.00;;;;;;;17.69;69.26;100739.41;5047195;28;20068;-70
2021/07/07 05:33:36;;;;;;;10.02;4.03;;;;;;;17.72;69.00;100738.75;5051591;28;20131;-71
2021/07/07 05:36:06;;;;;;;14.27;4.22;;;;;;;17.71;69.30;100733.44;5045152;28;20072;-65
2021/07/07 05:38:34;;;;;;;11.82;4.78;;;;;;;17.74;68.82;100736.44;5037734;28;20045;-66
2021/07/07 05:41:01;;;;;;;9.35;4.20;;;;;;;17.76;68.88;100733.31;5040203;28;20144;-64
2021/07/07 05:43:29;;;;;;;7.80;3.50;;;;;;;17.82;68.95;100736.84;5048303;28;20053;-62
2021/07/07 05:45:59;;;;;;;12.45;5.03;;;;;;;17.92;68.67;100742.22;5045727;28;20132;-64
2021/07/07 05:48:27;;;;;;;17.77;5.15;;;;;;;17.99;69.09;100739.75;5034343;28;20053;-72
2021/07/07 05:50:55;;;;;;;18.33;4.18;;;;;;;18.05;68.83;100746.94;5032619;28;20059;-63
2021/07/07 05:53:25;;;;;;;16.38;3.88;;;;;;;18.15;68.82;100755.09;5042365;28;20037;-64
2021/07/07 05:55:52;;;;;;;;;;;;;;;18.22;68.68;100751.78;5034379;28;20053;-64
2021/07/07 05:58:19;;;;;;;13.40;4.88;;;;;;;18.31;68.31;100754.66;5036942;28;20435;-64
2021/07/07 06:00:46;;;;;;;11.00;3.67;;;;;;;18.41;68.14;100758.00;5038884;28;20068;-64
2021/07/07 06:03:13;;;;;;;10.02;3.70;;;;;;;18.44;68.42;100757.34;5041248;28;20060;-64
2021/07/07 06:05:40;;;;;;;10.55;3.55;;;;;;;18.53;68.36;100771.53;5035118;28;20080;-65
2021/07/07 06:08:07;;;;;;;14.20;4.45;;;;;;;18.54;68.43;100770.34;5036844;28;20495;-64
2021/07/07 06:10:34;;;;;;;10.90;4.57;;;;;;;18.52;68.39;100761.34;5033686;28;20499;-63
2021/07/07 06:13:02;;;;;;;10.98;4.35;;;;;;;18.62;68.40;100774.34;5032227;28;20041;-62
2021/07/07 06:15:32;;;;;;;12.48;4.38;;;;;;;18.59;68.16;100767.34;5034418;28;20065;-64
2021/07/07 06:17:59;;;;;;;13.88;4.30;;;;;;;18.75;68.32;100786.72;5026584;28;20042;-62
2021/07/07 06:20:27;;;;;;;14.50;4.97;;;;;;;18.87;68.33;100789.72;5036764;28;20063;-62
2021/07/07 06:22:54;;;;;;;11.55;4.35;;;;;;;18.99;67.74;100791.94;5033233;28;20058;-62
2021/07/07 06:25:21;;;;;;;9.50;3.53;;;;;;;19.10;67.81;100805.41;5041274;28;20157;-64
2021/07/07 06:27:48;;;;;;;16.45;3.92;;;;;;;19.23;67.34;100797.94;5039826;28;20037;-62
2021/07/07 06:30:19;;;;;;;11.05;3.75;;;;;;;19.39;66.99;100789.78;5047389;28;20060;-62
2021/07/07 06:32:46;;;;;;;;;;;;;;;19.49;67.25;100794.25;5037176;28;20038;-62
2021/07/07 06:35:14;;;;;;;9.43;3.70;;;;;;;19.62;66.52;100798.88;5044260;28;19931;-62
2021/07/07 06:37:41;;;;;;;11.63;3.28;;;;;;;19.71;66.34;100796.09;5037134;28;20071;-62
2021/07/07 06:40:08;;;;;;;10.35;2.97;;;;;;;19.86;65.77;100799.22;5034374;28;20049;-62
2021/07/07 06:42:36;;;;;;;14.88;3.67;;;;;;;19.97;65.58;100799.69;5031840;28;20133;-62
2021/07/07 06:45:08;;;;;;;13.80;4.80;;;;;;;20.05;65.33;100798.00;5041167;28;20067;-62
2021/07/07 06:47:36;;;;;;;9.90;3.83;;;;;;;20.18;65.01;100790.44;5039834;28;20048;-62
2021/07/07 06:50:06;;;;;;;7.20;2.63;;;;;;;20.35;64.52;100805.38;5032220;28;20136;-62
2021/07/07 06:52:33;;;;;;;11.70;5.13;;;;;;;20.45;64.42;100804.16;5034345;28;20143;-62
2021/07/07 06:55:00;;;;;;;8.13;3.03;;;;;;;20.48;63.99;100782.81;5040267;28;20041;-62
2021/07/07 06:57:27;;;;;;;8.20;3.42;;;;;;;20.68;63.57;100801.06;5029992;28;20132;-63
2021/07/07 06:59:54;;;;;;;15.75;3.40;;;;;;;20.80;63.29;100815.34;5039188;28;20124;-62
2021/07/07 07:02:21;;;;;;;9.73;3.42;;;;;;;20.91;62.74;100813.75;5032725;28;20108;-63
2021/07/07 07:04:47;;;;;;;6.20;3.00;;;;;;;21.13;62.20;100814.59;5032185;28;20050;-62
2021/07/07 07:07:14;;;;;;;7.05;2.60;;;;;;;21.28;61.87;100819.69;5036943;28;20075;-62
2021/07/07 07:09:41;;;;;;;7.97;2.67;;;;;;;21.41;61.02;100818.59;5039514;28;20049;-61
2021/07/07 07:12:08;;;;;;;9.32;3.25;;;;;;;21.56;60.86;100830.50;5036409;28;20647;-61
2021/07/07 07:14:35;;;;;;;9.90;3.15;;;;;;;21.64;60.26;100826.72;5033171;28;20421;-59
2021/07/07 07:17:02;;;;;;;9.63;3.75;;;;;;;22.22;59.59;100836.19;5029941;28;20053;-71
2021/07/07 07:19:28;;;;;;;7.25;2.80;;;;;;;22.60;58.47;100840.75;5033196;28;20051;-70
2021/07/07 07:21:55;;;;;;;11.00;2.28;;;;;;;23.21;57.32;100837.84;5032339;28;20045;-70
2021/07/07 07:24:22;;;;;;;5.22;3.30;;;;;;;23.73;56.69;100839.88;5043875;28;20447;-71
2021/07/07 07:26:49;;;;;;;6.80;2.65;;;;;;;24.12;55.39;100825.88;5045213;28;20119;-70
2021/07/07 07:29:16;;;;;;;8.07;2.10;;;;;;;24.42;54.20;100809.19;5036326;28;20041;-70
2021/07/07 07:31:42;;;;;;;8.63;2.88;;;;;;;25.13;53.39;100847.25;5037770;28;20045;-72
2021/07/07 07:34:09;;;;;;;9.60;2.20;;;;;;;25.44;52.39;100843.47;5039407;28;20052;-71
2021/07/07 07:36:36;;;;;;;9.10;2.10;;;;;;;25.69;51.62;100844.00;5041374;28;20045;-72
2021/07/07 07:39:10;;;;;;;5.13;2.42;;;;;;;25.95;51.33;100842.50;5046815;28;20044;-72
2021/07/07 07:41:40;;;;;;;4.95;2.47;;;;;;;25.95;50.70;100849.06;5052322;28;20431;-71
2021/07/07 07:44:08;;;;;;;4.45;2.20;;;;;;;26.13;50.16;100852.25;5046019;28;20045;-71
2021/07/07 07:46:35;;;;;;;6.65;2.58;;;;;;;26.23;49.55;100840.19;5037608;28;20069;-69
2021/07/07 07:49:04;;;;;;;6.10;2.67;;;;;;;26.57;48.79;100857.59;5038343;28;20516;-71
2021/07/07 07:51:32;;;;;;;4.75;1.90;;;;;;;26.80;48.39;100868.19;5039536;28;20049;-69
2021/07/07 07:53:59;;;;;;;11.10;2.60;;;;;;;27.03;47.31;100850.97;5036443;28;20088;-70
2021/07/07 07:56:26;;;;;;;10.27;2.15;;;;;;;27.19;47.50;100853.72;5035760;28;20132;-70
2021/07/07 07:58:53;;;;;;;6.50;2.42;;;;;;;27.32;46.68;100852.28;5035198;28;20080;-69
2021/07/07 08:01:20;;;;;;;5.78;1.77;;;;;;;27.32;46.10;100849.41;5047588;28;20072;-70
2021/07/07 08:03:47;;;;;;;10.63;2.45;;;;;;;27.43;45.44;100858.97;5035160;28;20084;-70
2021/07/07 08:06:14;;;;;;;4.57;1.80;;;;;;;27.57;45.35;100876.38;5035622;28;20989;-68
2021/07/07 08:08:41;;;;;;;6.72;2.85;;;;;;;27.77;44.90;100867.66;5037229;28;20076;-69
2021/07/07 08:11:08;;;;;;;7.55;2.90;;;;;;;27.85;44.48;100872.25;5046369;28;20045;-69
2021/07/07 08:13:37;;;;;;;10.43;3.08;;;;;;;27.72;44.12;100877.38;5043662;28;20136;-64
2021/07/07 08:16:05;;;;;;;9.93;2.80;;;;;;;27.53;44.40;100881.25;5037235;28;20104;-65
2021/07/07 08:18:31;;;;;;;8.52;4.32;;;;;;;27.24;44.35;100861.97;5034193;28;20084;-78
2021/07/07 08:20:59;;;;;;;8.30;4.50;;;;;;;27.12;44.45;100878.19;5042824;28;20049;-76
2021/07/07 08:23:25;;;;;;;11.00;4.80;;;;;;;26.80;44.52;100879.66;5038230;28;20045;-70
2021/07/07 08:25:52;;;;;;;6.05;3.38;;;;;;;26.33;45.01;100880.88;5038377;28;20115;-71
2021/07/07 08:28:19;;;;;;;7.30;2.90;;;;;;;25.97;45.39;100883.81;5037611;28;20076;-68
2021/07/07 08:30:46;;;;;;;5.88;2.67;;;;;;;25.73;45.31;100876.34;5048854;28;20132;-66
2021/07/07 08:33:15;;;;;;;8.48;3.70;;;;;;;25.49;45.34;100883.19;5033943;28;20054;-66
2021/07/07 08:35:43;;;;;;;11.13;4.25;;;;;;;25.54;45.15;100876.38;5045158;28;20489;-69
2021/07/07 08:38:10;;;;;;;11.60;4.47;;;;;;;25.34;44.86;100886.13;5051109;28;20049;-73
2021/07/07 08:40:37;;;;;;;8.43;2.60;;;;;;;25.07;45.15;100888.72;5041246;28;20077;-75
2021/07/07 08:43:05;;;;;;;5.20;2.03;;;;;;;24.77;45.37;100891.22;5046251;28;20545;-69
2021/07/07 08:45:33;;;;;;;8.13;1.75;;;;;;;24.97;45.36;100880.72;5043674;28;20041;-61
2021/07/07 08:48:01;;;;;;;8.80;3.10;;;;;;;24.86;45.44;100891.06;5041661;28;20447;-72
2021/07/07 08:50:32;;;;;;;6.97;2.00;;;;;;;24.53;45.64;100880.81;5034775;28;20387;-64
2021/07/07 08:53:02;;;;;;;5.50;2.08;;;;;;;24.94;45.37;100895.72;5033234;28;20132;-67
2021/07/07 08:55:30;;;;;;;7.00;1.80;;;;;;;25.37;44.84;100885.34;5039068;28;20072;-68
2021/07/07 08:57:58;;;;;;;7.25;2.03;;;;;;;25.36;44.71;100901.66;5046144;28;20080;-69
2021/07/07 09:00:27;;;;;;;4.63;1.88;;;;;;;25.63;43.96;100896.16;5059538;28;20045;-68
2021/07/07 09:02:57;;;;;;;3.45;1.70;;;;;;;26.14;42.88;100896.84;5048539;28;21401;-63
2021/07/07 09:05:25;;;;;;;3.75;1.80;;;;;;;26.22;42.65;100890.06;5050928;28;20048;-76
2021/07/07 09:07:53;;;;;;;5.80;2.10;;;;;;;26.60;42.27;100879.75;5036743;28;20120;-68
2021/07/07 09:10:29;;;;;;;8.55;2.40;;;;;;;27.20;42.00;100896.31;5043808;28;20065;-75
2021/07/07 09:13:08;;;;;;;6.82;2.33;;;;;;;27.47;41.68;100885.66;5037863;28;20057;-77
2021/07/07 09:15:35;;;;;;;7.38;2.78;;;;;;;28.05;40.78;100908.19;5038372;28;20052;-68
2021/07/07 09:18:02;;;;;;;8.07;2.85;;;;;;;28.38;40.03;100905.66;5041823;28;20114;-65
2021/07/07 09:20:40;;;;;;;5.40;2.10;;;;;;;28.15;39.44;100877.13;5038769;28;20044;-66
2021/07/07 09:23:21;;;;;;;5.50;2.08;;;;;;;28.32;39.55;100899.47;5041986;28;20052;-67
2021/07/07 09:26:04;;;;;;;2.45;1.70;;;;;;;28.28;38.90;100905.19;5037008;28;20081;-72
2021/07/07 09:28:32;;;;;;;3.75;1.92;;;;;;;27.90;39.18;100905.50;5034029;28;20045;-68
2021/07/07 09:31:07;;;;;;;6.22;1.80;;;;;;;28.19;38.76;100893.16;5046317;28;20069;-67
2021/07/07 09:33:39;;;;;;;11.23;2.05;;;;;;;28.17;38.69;100898.50;5034615;28;20051;-74
2021/07/07 09:36:20;;;;;;;8.05;2.25;;;;;;;27.79;39.58;100893.91;5039199;28;20096;-73
2021/07/07 09:38:49;;;;;;;6.72;2.72;;;;;;;27.71;39.76;100915.91;5040959;28;20145;-71
2021/07/07 09:41:17;;;;;;;3.85;1.60;;;;;;;27.34;39.51;100907.19;5042632;28;20112;-69
2021/07/07 09:43:50;;;;;;;4.00;2.22;;;;;;;26.39;40.48;100897.34;5048981;28;20116;-69
2021/07/07 09:46:19;;;;;;;5.63;2.40;;;;;;;25.70;41.77;100914.28;5043398;28;20132;-71
2021/07/07 09:48:47;;;;;;;7.28;2.40;;;;;;;25.37;42.19;100911.06;5035048;28;20508;-70
2021/07/07 09:51:15;;;;;;;10.73;2.40;;;;;;;25.18;42.67;100918.41;5029046;28;20543;-74
2021/07/07 09:53:42;;;;;;;7.68;2.85;;;;;;;24.95;43.66;100925.94;5043426;28;20064;-67
2021/07/07 09:56:09;;;;;;;10.73;3.42;;;;;;;24.50;43.75;100907.25;5043894;28;20124;-68
2021/07/07 09:58:36;;;;;;;7.47;3.10;;;;;;;24.13;44.50;100919.66;5035125;28;20076;-70
2021/07/07 10:01:03;;;;;;;11.23;3.17;;;;;;;23.98;44.98;100922.47;5047655;28;20067;-69
2021/07/07 10:03:34;;;;;;;13.60;3.35;;;;;;;23.94;45.32;100925.22;5033718;28;20543;-69
2021/07/07 10:06:02;;;;;;;7.75;2.75;;;;;;;23.62;45.68;100942.19;5045562;28;20049;-71
2021/07/07 10:08:30;;;;;;;3.85;2.42;;;;;;;23.83;45.53;100935.50;5035146;28;20451;-72
2021/07/07 10:10:58;;;;;;;12.15;2.45;;;;;;;24.13;45.33;100944.50;5023412;28;20044;-70
2021/07/07 10:13:29;;;;;;;9.88;2.70;;;;;;;24.87;43.98;100941.25;5035759;28;20407;-70
2021/07/07 10:16:00;;;;;;;4.53;2.20;;;;;;;25.80;43.34;100934.97;5039768;28;20045;-70
2021/07/07 10:18:28;;;;;;;6.82;2.55;;;;;;;26.66;42.00;100938.34;5034331;28;20049;-69
2021/07/07 10:20:55;;;;;;;4.88;2.67;;;;;;;27.47;41.29;100937.28;5036156;28;20045;-69
2021/07/07 10:23:23;;;;;;;5.75;2.33;;;;;;;27.92;40.13;100924.00;5037599;28;20096;-69
2021/07/07 10:26:01;;;;;;;5.60;2.40;;;;;;;27.95;40.02;100934.72;5042130;28;20116;-69
2021/07/07 10:28:28;;;;;;;4.68;2.53;;;;;;;28.17;39.72;100940.72;5040340;28;20049;-69
2021/07/07 10:30:59;;;;;;;8.07;2.85;;;;;;;28.71;39.35;100945.03;5024170;28;20107;-70
2021/07/07 10:33:31;;;;;;;7.78;2.30;;;;;;;28.64;38.99;100948.66;5037478;28;20065;-70
2021/07/07 10:36:16;;;;;;;10.18;2.53;;;;;;;28.51;39.18;100921.44;5041749;28;20128;-70
2021/07/07 10:38:59;;;;;;;7.18;2.50;;;;;;;28.91;39.30;100948.53;5043464;28;20045;-70
2021/07/07 10:41:42;;;;;;;7.28;2.60;;;;;;;29.39;38.35;100943.59;5040178;28;20045;-69
2021/07/07 10:44:10;;;;;;;8.32;2.50;;;;;;;29.62;37.82;100956.94;5041522;28;20048;-69
2021/07/07 10:46:55;;;;;;;7.28;3.88;;;;;;;29.28;38.66;100946.41;5036585;28;20422;-69
2021/07/07 10:49:25;;;;;;;5.22;3.45;;;;;;;28.97;38.48;100952.69;5041922;28;20049;-70
2021/07/07 10:51:57;;;;;;;8.05;3.05;;;;;;;29.08;38.56;100958.56;5034364;28;20132;-70
2021/07/07 10:54:32;;;;;;;9.25;4.70;;;;;;;29.45;38.39;100962.13;5035958;28;20084;-69
2021/07/07 10:57:03;;;;;;;9.90;4.40;;;;;;;29.81;37.62;100962.38;5035996;28;20721;-70
2021/07/07 10:59:47;;;;;;;9.90;3.33;;;;;;;29.76;37.68;100948.38;5032236;28;20128;-69
2021/07/07 11:02:22;;;;;;;8.15;2.55;;;;;;;29.42;37.49;100965.00;5039078;28;20136;-70
2021/07/07 11:05:02;;;;;;;7.15;2.20;;;;;;;29.36;37.87;100960.84;5037929;28;20049;-69
2021/07/07 11:07:32;;;;;;;5.32;2.30;;;;;;;29.41;37.85;100946.91;5038257;28;20103;-69
2021/07/07 11:10:20;;;;;;;5.05;1.95;;;;;;;29.65;37.91;100956.97;5036810;28;20069;-69
2021/07/07 11:12:54;;;;;;;5.80;2.13;;;;;;;29.14;37.77;100957.78;5035926;28;20072;-69
2021/07/07 11:15:23;;;;;;;5.20;1.92;;;;;;;28.71;38.06;100953.66;5041540;28;20044;-68
2021/07/07 11:17:50;;;;;;;;;;;;;;;27.96;39.89;100959.31;5041939;28;20078;-69
2021/07/07 11:20:31;;;;;;;9.15;2.13;;;;;;;27.72;39.50;100962.66;5050147;28;20379;-69
2021/07/07 11:23:04;;;;;;;6.28;2.20;;;;;;;27.65;39.50;100949.84;5050282;28;20083;-71
2021/07/07 11:25:32;;;;;;;9.38;2.50;;;;;;;28.02;39.34;100957.75;5049181;28;20049;-70
2021/07/07 11:28:02;;;;;;;4.90;2.42;;;;;;;28.22;38.91;100969.91;5044687;28;20496;-70